sensor_id;sensor_type;location;lat;lon;timestamp;temperature;humidity
5304;DHT22;2674;49.722;10.892;2023-12-20T00:01:26;4.80;99.90
5304;DHT22;2674;49.722;10.892;2023-12-20T00:03:52;4.80;99.90
5304;DHT22;2674;49.722;10.892;2023-12-20T00:06:18;4.80;99.90
5304;DHT22;2674;49.722;10.892;2023-12-20T00:08:44;4.80;99.90
5304;DHT22;2674;49.722;10.892;2023-12-20T00:11:10;4.90;99.90
5304;DHT22;2674;49.722;10.892;2023-12-20T00:13:35;4.80;99.90
5304;DHT22;2674;49.722;10.892;2023-12-20T00:16:01;4.80;99.90
5304;DHT22;2674;49.722;10.892;2023-12-20T00:18:27;4.80;99.90
5304;DHT22;2674;49.722;10.892;2023-12-20T00:20:53;4.80;99.90
5304;DHT22;2674;49.722;10.892;2023-12-20T00:23:18;4.80;99.90
5304;DHT22;2674;49.722;10.892;2023-12-20T00:25:44;4.80;99.90
5304;DHT22;2674;49.722;10.892;2023-12-20T00:28:10;4.80;99.90
5304;DHT22;2674;49.722;10.892;2023-12-20T00:30:36;4.90;99.90
5304;DHT22;2674;49.722;10.892;2023-12-20T00:33:02;4.80;99.90
5304;DHT22;2674;49.722;10.892;2023-12-20T00:35:28;4.90;99.90
5304;DHT22;2674;49.722;10.892;2023-12-20T00:37:54;4.90;99.90
5304;DHT22;2674;49.722;10.892;2023-12-20T00:40:19;4.90;99.90
5304;DHT22;2674;49.722;10.892;2023-12-20T00:42:46;4.90;99.90
5304;DHT22;2674;49.722;10.892;2023-12-20T00:45:12;4.90;99.90
5304;DHT22;2674;49.722;10.892;2023-12-20T00:47:38;4.80;99.90
5304;DHT22;2674;49.722;10.892;2023-12-20T00:50:05;4.90;99.90
5304;DHT22;2674;49.722;10.892;2023-12-20T00:52:30;4.80;99.90
5304;DHT22;2674;49.722;10.892;2023-12-20T00:54:56;4.90;99.90
5304;DHT22;2674;49.722;10.892;2023-12-20T00:57:22;4.80;99.90
5304;DHT22;2674;49.722;10.892;2023-12-20T00:59:48;4.80;99.90
5304;DHT22;2674;49.722;10.892;2023-12-20T01:02:13;4.80;99.90
5304;DHT22;2674;49.722;10.892;2023-12-20T01:04:39;4.90;99.90
5304;DHT22;2674;49.722;10.892;2023-12-20T01:07:05;4.90;99.90
5304;DHT22;2674;49.722;10.892;2023-12-20T01:09:31;4.90;99.90
5304;DHT22;2674;49.722;10.892;2023-12-20T01:11:56;4.90;99.90
5304;DHT22;2674;49.722;10.892;2023-12-20T01:14:22;4.90;99.90
5304;DHT22;2674;49.722;10.892;2023-12-20T01:16:48;4.80;99.90
5304;DHT22;2674;49.722;10.892;2023-12-20T01:19:13;4.90;99.90
5304;DHT22;2674;49.722;10.892;2023-12-20T01:21:40;4.80;99.90
5304;DHT22;2674;49.722;10.892;2023-12-20T01:24:06;4.80;99.90
5304;DHT22;2674;49.722;10.892;2023-12-20T01:26:31;4.80;99.90
5304;DHT22;2674;49.722;10.892;2023-12-20T01:28:57;4.80;99.90
5304;DHT22;2674;49.722;10.892;2023-12-20T01:31:23;4.80;99.90
5304;DHT22;2674;49.722;10.892;2023-12-20T01:33:49;4.90;99.90
5304;DHT22;2674;49.722;10.892;2023-12-20T01:36:15;4.80;99.90
5304;DHT22;2674;49.722;10.892;2023-12-20T01:38:41;4.80;99.90
5304;DHT22;2674;49.722;10.892;2023-12-20T01:41:06;4.80;99.90
5304;DHT22;2674;49.722;10.892;2023-12-20T01:43:32;4.80;99.90
5304;DHT22;2674;49.722;10.892;2023-12-20T01:45:58;4.80;99.90
5304;DHT22;2674;49.722;10.892;2023-12-20T01:48:25;4.80;99.90
5304;DHT22;2674;49.722;10.892;2023-12-20T01:50:52;4.80;99.90
5304;DHT22;2674;49.722;10.892;2023-12-20T01:53:21;4.70;99.90
5304;DHT22;2674;49.722;10.892;2023-12-20T01:55:50;4.80;99.90
5304;DHT22;2674;49.722;10.892;2023-12-20T01:58:18;4.70;99.90
5304;DHT22;2674;49.722;10.892;2023-12-20T02:00:44;4.70;99.90
5304;DHT22;2674;49.722;10.892;2023-12-20T02:03:10;4.70;99.90
5304;DHT22;2674;49.722;10.892;2023-12-20T02:05:38;4.70;99.90
5304;DHT22;2674;49.722;10.892;2023-12-20T02:08:04;4.60;99.90
5304;DHT22;2674;49.722;10.892;2023-12-20T02:10:31;4.60;99.90
5304;DHT22;2674;49.722;10.892;2023-12-20T02:12:57;4.60;99.90
5304;DHT22;2674;49.722;10.892;2023-12-20T02:15:23;4.60;99.90
5304;DHT22;2674;49.722;10.892;2023-12-20T02:17:49;4.60;99.90
5304;DHT22;2674;49.722;10.892;2023-12-20T02:20:15;4.60;99.90
5304;DHT22;2674;49.722;10.892;2023-12-20T02:22:41;4.50;99.90
5304;DHT22;2674;49.722;10.892;2023-12-20T02:25:07;4.50;99.90
5304;DHT22;2674;49.722;10.892;2023-12-20T02:27:33;4.50;99.90
5304;DHT22;2674;49.722;10.892;2023-12-20T02:29:59;4.50;99.90
5304;DHT22;2674;49.722;10.892;2023-12-20T02:32:25;4.50;99.90
5304;DHT22;2674;49.722;10.892;2023-12-20T02:34:55;4.50;99.90
5304;DHT22;2674;49.722;10.892;2023-12-20T02:37:21;4.50;99.90
5304;DHT22;2674;49.722;10.892;2023-12-20T02:39:46;4.50;99.90
5304;DHT22;2674;49.722;10.892;2023-12-20T02:42:12;4.50;99.90
5304;DHT22;2674;49.722;10.892;2023-12-20T02:44:38;4.50;99.90
5304;DHT22;2674;49.722;10.892;2023-12-20T02:47:04;4.50;99.90
5304;DHT22;2674;49.722;10.892;2023-12-20T02:49:30;4.50;99.90
5304;DHT22;2674;49.722;10.892;2023-12-20T02:51:56;4.40;99.90
5304;DHT22;2674;49.722;10.892;2023-12-20T02:54:21;4.40;99.90
5304;DHT22;2674;49.722;10.892;2023-12-20T02:56:48;4.40;99.90
5304;DHT22;2674;49.722;10.892;2023-12-20T02:59:14;4.40;99.90
5304;DHT22;2674;49.722;10.892;2023-12-20T03:01:45;4.40;99.90
5304;DHT22;2674;49.722;10.892;2023-12-20T03:04:12;4.40;99.90
5304;DHT22;2674;49.722;10.892;2023-12-20T03:06:38;4.30;99.90
5304;DHT22;2674;49.722;10.892;2023-12-20T03:09:05;4.30;99.90
5304;DHT22;2674;49.722;10.892;2023-12-20T03:11:30;4.30;99.90
5304;DHT22;2674;49.722;10.892;2023-12-20T03:13:57;4.30;99.90
5304;DHT22;2674;49.722;10.892;2023-12-20T03:16:23;4.30;99.90
5304;DHT22;2674;49.722;10.892;2023-12-20T03:18:49;4.30;99.90
5304;DHT22;2674;49.722;10.892;2023-12-20T03:21:15;4.30;99.90
5304;DHT22;2674;49.722;10.892;2023-12-20T03:23:41;4.30;99.90
5304;DHT22;2674;49.722;10.892;2023-12-20T03:26:08;4.30;99.90
5304;DHT22;2674;49.722;10.892;2023-12-20T03:28:34;4.30;99.90
5304;DHT22;2674;49.722;10.892;2023-12-20T03:31:00;4.30;99.90
5304;DHT22;2674;49.722;10.892;2023-12-20T03:33:25;4.40;99.90
5304;DHT22;2674;49.722;10.892;2023-12-20T03:35:51;4.20;99.90
5304;DHT22;2674;49.722;10.892;2023-12-20T03:38:17;4.20;99.90
5304;DHT22;2674;49.722;10.892;2023-12-20T03:40:43;4.20;99.90
5304;DHT22;2674;49.722;10.892;2023-12-20T03:43:08;4.20;99.90
5304;DHT22;2674;49.722;10.892;2023-12-20T03:45:34;4.20;99.90
5304;DHT22;2674;49.722;10.892;2023-12-20T03:48:00;4.20;99.90
5304;DHT22;2674;49.722;10.892;2023-12-20T03:50:26;4.20;99.90
5304;DHT22;2674;49.722;10.892;2023-12-20T03:52:52;4.20;99.90
5304;DHT22;2674;49.722;10.892;2023-12-20T03:55:18;4.20;99.90
5304;DHT22;2674;49.722;10.892;2023-12-20T03:57:44;4.10;99.90
5304;DHT22;2674;49.722;10.892;2023-12-20T04:00:10;4.10;99.90
5304;DHT22;2674;49.722;10.892;2023-12-20T04:02:40;4.10;99.90
5304;DHT22;2674;49.722;10.892;2023-12-20T04:05:07;4.10;99.90
5304;DHT22;2674;49.722;10.892;2023-12-20T04:07:33;4.10;99.90
5304;DHT22;2674;49.722;10.892;2023-12-20T04:10:00;4.10;99.90
5304;DHT22;2674;49.722;10.892;2023-12-20T04:12:27;4.10;99.90
5304;DHT22;2674;49.722;10.892;2023-12-20T04:14:53;4.10;99.90
5304;DHT22;2674;49.722;10.892;2023-12-20T04:17:20;4.00;99.90
5304;DHT22;2674;49.722;10.892;2023-12-20T04:19:51;4.10;99.90
5304;DHT22;2674;49.722;10.892;2023-12-20T04:22:17;4.00;99.90
5304;DHT22;2674;49.722;10.892;2023-12-20T04:24:43;4.00;99.90
5304;DHT22;2674;49.722;10.892;2023-12-20T04:27:09;4.00;99.90
5304;DHT22;2674;49.722;10.892;2023-12-20T04:29:35;4.00;99.90
5304;DHT22;2674;49.722;10.892;2023-12-20T04:32:01;4.00;99.90
5304;DHT22;2674;49.722;10.892;2023-12-20T04:34:26;4.00;99.90
5304;DHT22;2674;49.722;10.892;2023-12-20T04:36:53;4.00;99.90
5304;DHT22;2674;49.722;10.892;2023-12-20T04:39:19;4.00;99.90
5304;DHT22;2674;49.722;10.892;2023-12-20T04:41:44;4.00;99.90
5304;DHT22;2674;49.722;10.892;2023-12-20T04:44:10;4.00;99.90
5304;DHT22;2674;49.722;10.892;2023-12-20T04:46:36;4.00;99.90
5304;DHT22;2674;49.722;10.892;2023-12-20T04:49:02;4.00;99.90
5304;DHT22;2674;49.722;10.892;2023-12-20T04:51:28;4.00;99.90
5304;DHT22;2674;49.722;10.892;2023-12-20T04:53:53;4.00;99.90
5304;DHT22;2674;49.722;10.892;2023-12-20T04:56:19;3.90;99.90
5304;DHT22;2674;49.722;10.892;2023-12-20T04:58:45;3.90;99.90
5304;DHT22;2674;49.722;10.892;2023-12-20T05:01:12;4.00;99.90
5304;DHT22;2674;49.722;10.892;2023-12-20T05:03:38;3.90;99.90
5304;DHT22;2674;49.722;10.892;2023-12-20T05:06:04;3.90;99.90
5304;DHT22;2674;49.722;10.892;2023-12-20T05:08:30;3.90;99.90
5304;DHT22;2674;49.722;10.892;2023-12-20T05:10:55;3.90;99.90
5304;DHT22;2674;49.722;10.892;2023-12-20T05:13:21;3.90;99.90
5304;DHT22;2674;49.722;10.892;2023-12-20T05:15:47;3.90;99.90
5304;DHT22;2674;49.722;10.892;2023-12-20T05:18:13;3.90;99.90
5304;DHT22;2674;49.722;10.892;2023-12-20T05:20:40;3.90;99.90
5304;DHT22;2674;49.722;10.892;2023-12-20T05:23:06;3.90;99.90
5304;DHT22;2674;49.722;10.892;2023-12-20T05:25:32;4.00;99.90
5304;DHT22;2674;49.722;10.892;2023-12-20T05:27:58;4.00;99.90
5304;DHT22;2674;49.722;10.892;2023-12-20T05:30:24;3.90;99.90
5304;DHT22;2674;49.722;10.892;2023-12-20T05:32:49;4.00;99.90
5304;DHT22;2674;49.722;10.892;2023-12-20T05:35:15;4.00;99.90
5304;DHT22;2674;49.722;10.892;2023-12-20T05:37:41;4.00;99.90
5304;DHT22;2674;49.722;10.892;2023-12-20T05:40:08;4.00;99.90
5304;DHT22;2674;49.722;10.892;2023-12-20T05:42:37;4.00;99.90
5304;DHT22;2674;49.722;10.892;2023-12-20T05:45:04;4.00;99.90
5304;DHT22;2674;49.722;10.892;2023-12-20T05:47:29;4.00;99.90
5304;DHT22;2674;49.722;10.892;2023-12-20T05:49:55;4.00;99.90
5304;DHT22;2674;49.722;10.892;2023-12-20T05:52:21;4.00;99.90
5304;DHT22;2674;49.722;10.892;2023-12-20T05:54:47;4.00;99.90
5304;DHT22;2674;49.722;10.892;2023-12-20T05:57:13;4.00;99.90
5304;DHT22;2674;49.722;10.892;2023-12-20T05:59:39;4.10;99.90
5304;DHT22;2674;49.722;10.892;2023-12-20T06:02:05;4.10;99.90
5304;DHT22;2674;49.722;10.892;2023-12-20T06:04:31;4.10;99.90
5304;DHT22;2674;49.722;10.892;2023-12-20T06:06:57;4.10;99.90
5304;DHT22;2674;49.722;10.892;2023-12-20T06:09:23;4.00;99.90
5304;DHT22;2674;49.722;10.892;2023-12-20T06:11:49;4.00;99.90
5304;DHT22;2674;49.722;10.892;2023-12-20T06:14:16;4.00;99.90
5304;DHT22;2674;49.722;10.892;2023-12-20T06:16:42;4.00;99.90
5304;DHT22;2674;49.722;10.892;2023-12-20T06:19:08;4.00;99.90
5304;DHT22;2674;49.722;10.892;2023-12-20T06:21:34;4.00;99.90
5304;DHT22;2674;49.722;10.892;2023-12-20T06:24:00;4.10;99.90
5304;DHT22;2674;49.722;10.892;2023-12-20T06:26:25;4.10;99.90
5304;DHT22;2674;49.722;10.892;2023-12-20T06:28:51;4.00;99.90
5304;DHT22;2674;49.722;10.892;2023-12-20T06:31:17;4.10;99.90
5304;DHT22;2674;49.722;10.892;2023-12-20T06:33:43;4.10;99.90
5304;DHT22;2674;49.722;10.892;2023-12-20T06:36:13;4.10;99.90
5304;DHT22;2674;49.722;10.892;2023-12-20T06:38:39;4.10;99.90
5304;DHT22;2674;49.722;10.892;2023-12-20T06:41:05;4.10;99.90
5304;DHT22;2674;49.722;10.892;2023-12-20T06:43:31;4.10;99.90
5304;DHT22;2674;49.722;10.892;2023-12-20T06:45:58;4.10;99.90
5304;DHT22;2674;49.722;10.892;2023-12-20T06:48:24;4.10;99.90
5304;DHT22;2674;49.722;10.892;2023-12-20T06:50:50;4.10;99.90
5304;DHT22;2674;49.722;10.892;2023-12-20T06:53:15;4.10;99.90
5304;DHT22;2674;49.722;10.892;2023-12-20T06:55:42;4.20;99.90
5304;DHT22;2674;49.722;10.892;2023-12-20T06:58:07;4.20;99.90
5304;DHT22;2674;49.722;10.892;2023-12-20T07:00:34;4.20;99.90
5304;DHT22;2674;49.722;10.892;2023-12-20T07:03:00;4.20;99.90
5304;DHT22;2674;49.722;10.892;2023-12-20T07:05:26;4.20;99.90
5304;DHT22;2674;49.722;10.892;2023-12-20T07:07:52;4.20;99.90
5304;DHT22;2674;49.722;10.892;2023-12-20T07:10:18;4.20;99.90
5304;DHT22;2674;49.722;10.892;2023-12-20T07:12:44;4.20;99.90
5304;DHT22;2674;49.722;10.892;2023-12-20T07:15:10;4.20;99.90
5304;DHT22;2674;49.722;10.892;2023-12-20T07:17:36;4.30;99.90
5304;DHT22;2674;49.722;10.892;2023-12-20T07:20:02;4.50;99.90
5304;DHT22;2674;49.722;10.892;2023-12-20T07:22:32;4.60;99.90
5304;DHT22;2674;49.722;10.892;2023-12-20T07:24:59;4.50;99.90
5304;DHT22;2674;49.722;10.892;2023-12-20T07:27:24;4.50;99.90
5304;DHT22;2674;49.722;10.892;2023-12-20T07:29:51;4.40;99.90
5304;DHT22;2674;49.722;10.892;2023-12-20T07:32:17;4.40;99.90
5304;DHT22;2674;49.722;10.892;2023-12-20T07:34:43;4.40;99.90
5304;DHT22;2674;49.722;10.892;2023-12-20T07:37:08;4.30;99.90
5304;DHT22;2674;49.722;10.892;2023-12-20T07:39:36;4.30;99.90
5304;DHT22;2674;49.722;10.892;2023-12-20T07:42:01;4.30;99.90
5304;DHT22;2674;49.722;10.892;2023-12-20T07:44:27;4.30;99.90
5304;DHT22;2674;49.722;10.892;2023-12-20T07:46:53;4.30;99.90
5304;DHT22;2674;49.722;10.892;2023-12-20T07:49:19;4.30;99.90
5304;DHT22;2674;49.722;10.892;2023-12-20T07:51:45;4.30;99.90
5304;DHT22;2674;49.722;10.892;2023-12-20T07:54:11;4.30;99.90
5304;DHT22;2674;49.722;10.892;2023-12-20T07:56:36;4.40;99.90
5304;DHT22;2674;49.722;10.892;2023-12-20T07:59:02;4.40;99.90
5304;DHT22;2674;49.722;10.892;2023-12-20T08:01:28;4.40;99.90
5304;DHT22;2674;49.722;10.892;2023-12-20T08:03:54;4.40;99.90
5304;DHT22;2674;49.722;10.892;2023-12-20T08:06:20;4.40;99.90
5304;DHT22;2674;49.722;10.892;2023-12-20T08:08:46;4.40;99.90
5304;DHT22;2674;49.722;10.892;2023-12-20T08:11:12;4.50;99.90
5304;DHT22;2674;49.722;10.892;2023-12-20T08:13:38;4.50;99.90
5304;DHT22;2674;49.722;10.892;2023-12-20T08:16:04;4.50;99.90
5304;DHT22;2674;49.722;10.892;2023-12-20T08:18:30;4.50;99.90
5304;DHT22;2674;49.722;10.892;2023-12-20T08:20:55;4.60;99.90
5304;DHT22;2674;49.722;10.892;2023-12-20T08:23:21;4.60;99.90
5304;DHT22;2674;49.722;10.892;2023-12-20T08:25:47;4.60;99.90
5304;DHT22;2674;49.722;10.892;2023-12-20T08:28:13;4.70;99.90
5304;DHT22;2674;49.722;10.892;2023-12-20T08:30:39;4.70;99.90
5304;DHT22;2674;49.722;10.892;2023-12-20T08:33:06;4.70;99.90
5304;DHT22;2674;49.722;10.892;2023-12-20T08:35:36;4.70;99.90
5304;DHT22;2674;49.722;10.892;2023-12-20T08:38:02;4.70;99.90
5304;DHT22;2674;49.722;10.892;2023-12-20T08:40:29;4.70;99.90
5304;DHT22;2674;49.722;10.892;2023-12-20T08:42:55;4.70;99.90
5304;DHT22;2674;49.722;10.892;2023-12-20T08:45:21;4.70;99.90
5304;DHT22;2674;49.722;10.892;2023-12-20T08:47:47;4.70;99.90
5304;DHT22;2674;49.722;10.892;2023-12-20T08:50:13;4.70;99.90
5304;DHT22;2674;49.722;10.892;2023-12-20T08:52:39;4.70;99.90
5304;DHT22;2674;49.722;10.892;2023-12-20T08:55:05;4.70;99.90
5304;DHT22;2674;49.722;10.892;2023-12-20T08:57:31;4.70;99.90
5304;DHT22;2674;49.722;10.892;2023-12-20T08:59:57;4.70;99.90
5304;DHT22;2674;49.722;10.892;2023-12-20T09:02:23;4.70;99.90
5304;DHT22;2674;49.722;10.892;2023-12-20T09:04:49;4.70;99.90
5304;DHT22;2674;49.722;10.892;2023-12-20T09:07:25;4.70;99.90
5304;DHT22;2674;49.722;10.892;2023-12-20T09:09:51;4.70;99.90
5304;DHT22;2674;49.722;10.892;2023-12-20T09:12:21;4.70;99.90
5304;DHT22;2674;49.722;10.892;2023-12-20T09:14:48;4.70;99.90
5304;DHT22;2674;49.722;10.892;2023-12-20T09:17:15;4.80;99.90
5304;DHT22;2674;49.722;10.892;2023-12-20T09:19:42;4.80;99.90
5304;DHT22;2674;49.722;10.892;2023-12-20T09:22:09;4.90;99.90
5304;DHT22;2674;49.722;10.892;2023-12-20T09:24:35;5.00;99.90
5304;DHT22;2674;49.722;10.892;2023-12-20T09:27:01;5.00;99.90
5304;DHT22;2674;49.722;10.892;2023-12-20T09:29:28;5.00;99.90
5304;DHT22;2674;49.722;10.892;2023-12-20T09:31:57;5.00;99.90
5304;DHT22;2674;49.722;10.892;2023-12-20T09:34:23;5.10;99.90
5304;DHT22;2674;49.722;10.892;2023-12-20T09:36:49;5.00;99.90
5304;DHT22;2674;49.722;10.892;2023-12-20T09:39:19;5.00;99.90
5304;DHT22;2674;49.722;10.892;2023-12-20T09:42:02;5.00;99.90
5304;DHT22;2674;49.722;10.892;2023-12-20T09:44:28;5.10;99.90
5304;DHT22;2674;49.722;10.892;2023-12-20T09:46:55;5.00;99.90
5304;DHT22;2674;49.722;10.892;2023-12-20T09:49:21;5.10;99.90
5304;DHT22;2674;49.722;10.892;2023-12-20T09:51:48;5.10;99.90
5304;DHT22;2674;49.722;10.892;2023-12-20T09:54:17;5.10;99.90
5304;DHT22;2674;49.722;10.892;2023-12-20T09:56:43;5.10;99.90
5304;DHT22;2674;49.722;10.892;2023-12-20T09:59:09;5.20;99.90
5304;DHT22;2674;49.722;10.892;2023-12-20T10:01:36;5.20;99.90
5304;DHT22;2674;49.722;10.892;2023-12-20T10:04:08;5.20;99.90
5304;DHT22;2674;49.722;10.892;2023-12-20T10:06:41;5.30;99.90
5304;DHT22;2674;49.722;10.892;2023-12-20T10:09:08;5.20;99.90
5304;DHT22;2674;49.722;10.892;2023-12-20T10:11:38;5.20;99.90
5304;DHT22;2674;49.722;10.892;2023-12-20T10:14:05;5.30;99.90
5304;DHT22;2674;49.722;10.892;2023-12-20T10:16:31;5.30;99.90
5304;DHT22;2674;49.722;10.892;2023-12-20T10:18:58;5.30;99.90
5304;DHT22;2674;49.722;10.892;2023-12-20T10:21:25;5.30;99.90
5304;DHT22;2674;49.722;10.892;2023-12-20T10:23:55;5.30;99.90
5304;DHT22;2674;49.722;10.892;2023-12-20T10:26:30;5.30;99.90
5304;DHT22;2674;49.722;10.892;2023-12-20T10:29:00;5.30;99.90
5304;DHT22;2674;49.722;10.892;2023-12-20T10:31:32;5.30;99.90
5304;DHT22;2674;49.722;10.892;2023-12-20T10:33:59;5.30;99.90
5304;DHT22;2674;49.722;10.892;2023-12-20T10:36:26;5.30;99.90
5304;DHT22;2674;49.722;10.892;2023-12-20T10:38:53;5.40;99.90
5304;DHT22;2674;49.722;10.892;2023-12-20T10:41:28;5.50;99.90
5304;DHT22;2674;49.722;10.892;2023-12-20T10:44:03;5.60;99.90
5304;DHT22;2674;49.722;10.892;2023-12-20T10:46:34;5.60;99.90
5304;DHT22;2674;49.722;10.892;2023-12-20T10:49:02;5.60;99.90
5304;DHT22;2674;49.722;10.892;2023-12-20T10:51:28;5.60;99.90
5304;DHT22;2674;49.722;10.892;2023-12-20T10:53:57;5.70;99.90
5304;DHT22;2674;49.722;10.892;2023-12-20T10:56:23;5.70;99.90
5304;DHT22;2674;49.722;10.892;2023-12-20T10:58:49;5.70;99.90
5304;DHT22;2674;49.722;10.892;2023-12-20T11:01:19;5.70;99.90
5304;DHT22;2674;49.722;10.892;2023-12-20T11:03:50;5.70;99.90
5304;DHT22;2674;49.722;10.892;2023-12-20T11:09:23;5.60;99.90
5304;DHT22;2674;49.722;10.892;2023-12-20T11:11:59;5.60;99.90
5304;DHT22;2674;49.722;10.892;2023-12-20T11:17:09;5.60;99.90
5304;DHT22;2674;49.722;10.892;2023-12-20T11:19:37;5.60;99.90
5304;DHT22;2674;49.722;10.892;2023-12-20T11:22:04;5.70;99.90
5304;DHT22;2674;49.722;10.892;2023-12-20T11:24:31;5.70;99.90
5304;DHT22;2674;49.722;10.892;2023-12-20T11:27:00;5.60;99.90
5304;DHT22;2674;49.722;10.892;2023-12-20T11:29:36;5.70;99.90
5304;DHT22;2674;49.722;10.892;2023-12-20T11:32:04;5.60;99.90
5304;DHT22;2674;49.722;10.892;2023-12-20T11:34:51;5.60;99.90
5304;DHT22;2674;49.722;10.892;2023-12-20T11:37:19;5.60;99.90
5304;DHT22;2674;49.722;10.892;2023-12-20T11:39:45;5.60;99.90
5304;DHT22;2674;49.722;10.892;2023-12-20T11:42:20;5.60;99.90
5304;DHT22;2674;49.722;10.892;2023-12-20T11:44:46;5.70;99.90
5304;DHT22;2674;49.722;10.892;2023-12-20T11:47:13;5.70;99.90
5304;DHT22;2674;49.722;10.892;2023-12-20T11:49:39;5.80;99.90
5304;DHT22;2674;49.722;10.892;2023-12-20T11:52:05;5.90;99.90
5304;DHT22;2674;49.722;10.892;2023-12-20T11:54:31;5.90;99.90
5304;DHT22;2674;49.722;10.892;2023-12-20T11:56:57;5.90;99.90
5304;DHT22;2674;49.722;10.892;2023-12-20T11:59:23;5.80;99.90
5304;DHT22;2674;49.722;10.892;2023-12-20T12:01:50;5.80;99.90
5304;DHT22;2674;49.722;10.892;2023-12-20T12:04:16;5.80;99.90
5304;DHT22;2674;49.722;10.892;2023-12-20T12:06:43;5.80;99.90
5304;DHT22;2674;49.722;10.892;2023-12-20T12:09:10;5.80;99.90
5304;DHT22;2674;49.722;10.892;2023-12-20T12:11:36;5.80;99.90
5304;DHT22;2674;49.722;10.892;2023-12-20T12:14:06;5.90;99.90
5304;DHT22;2674;49.722;10.892;2023-12-20T12:16:32;5.90;99.90
5304;DHT22;2674;49.722;10.892;2023-12-20T12:18:58;5.90;99.90
5304;DHT22;2674;49.722;10.892;2023-12-20T12:21:25;5.90;99.90
5304;DHT22;2674;49.722;10.892;2023-12-20T12:23:51;5.90;99.90
5304;DHT22;2674;49.722;10.892;2023-12-20T12:26:16;5.90;99.90
5304;DHT22;2674;49.722;10.892;2023-12-20T12:28:43;5.90;99.90
5304;DHT22;2674;49.722;10.892;2023-12-20T12:31:17;5.90;99.90
5304;DHT22;2674;49.722;10.892;2023-12-20T12:33:43;5.90;99.90
5304;DHT22;2674;49.722;10.892;2023-12-20T12:36:10;5.90;99.90
5304;DHT22;2674;49.722;10.892;2023-12-20T12:38:37;5.90;99.90
5304;DHT22;2674;49.722;10.892;2023-12-20T12:41:02;5.90;99.90
5304;DHT22;2674;49.722;10.892;2023-12-20T12:43:28;5.90;99.90
5304;DHT22;2674;49.722;10.892;2023-12-20T12:45:54;5.90;99.90
5304;DHT22;2674;49.722;10.892;2023-12-20T12:48:21;5.90;99.90
5304;DHT22;2674;49.722;10.892;2023-12-20T12:50:46;5.80;99.90
5304;DHT22;2674;49.722;10.892;2023-12-20T12:53:12;5.80;99.90
5304;DHT22;2674;49.722;10.892;2023-12-20T12:55:38;5.80;99.90
5304;DHT22;2674;49.722;10.892;2023-12-20T12:58:04;5.80;99.90
5304;DHT22;2674;49.722;10.892;2023-12-20T13:00:30;5.80;99.90
5304;DHT22;2674;49.722;10.892;2023-12-20T13:02:56;5.70;99.90
5304;DHT22;2674;49.722;10.892;2023-12-20T13:05:22;5.70;99.90
5304;DHT22;2674;49.722;10.892;2023-12-20T13:07:48;5.70;99.90
5304;DHT22;2674;49.722;10.892;2023-12-20T13:10:14;5.60;99.90
5304;DHT22;2674;49.722;10.892;2023-12-20T13:12:42;5.70;99.90
5304;DHT22;2674;49.722;10.892;2023-12-20T13:15:08;5.60;99.90
5304;DHT22;2674;49.722;10.892;2023-12-20T13:17:34;5.70;99.90
5304;DHT22;2674;49.722;10.892;2023-12-20T13:20:00;5.70;99.90
5304;DHT22;2674;49.722;10.892;2023-12-20T13:22:26;5.70;99.90
5304;DHT22;2674;49.722;10.892;2023-12-20T13:24:52;5.60;99.90
5304;DHT22;2674;49.722;10.892;2023-12-20T13:27:17;5.60;99.90
5304;DHT22;2674;49.722;10.892;2023-12-20T13:29:43;5.60;99.90
5304;DHT22;2674;49.722;10.892;2023-12-20T13:32:09;5.50;99.90
5304;DHT22;2674;49.722;10.892;2023-12-20T13:34:35;5.50;99.90
5304;DHT22;2674;49.722;10.892;2023-12-20T13:37:01;5.50;99.90
5304;DHT22;2674;49.722;10.892;2023-12-20T13:39:27;5.50;99.90
5304;DHT22;2674;49.722;10.892;2023-12-20T13:41:52;5.40;99.90
5304;DHT22;2674;49.722;10.892;2023-12-20T13:44:18;5.40;99.90
5304;DHT22;2674;49.722;10.892;2023-12-20T13:46:44;5.40;99.90
5304;DHT22;2674;49.722;10.892;2023-12-20T13:49:11;5.30;99.90
5304;DHT22;2674;49.722;10.892;2023-12-20T13:51:37;5.30;99.90
5304;DHT22;2674;49.722;10.892;2023-12-20T13:54:04;5.30;99.90
5304;DHT22;2674;49.722;10.892;2023-12-20T13:56:29;5.30;99.90
5304;DHT22;2674;49.722;10.892;2023-12-20T13:58:55;5.30;99.90
5304;DHT22;2674;49.722;10.892;2023-12-20T14:01:23;5.30;99.90
5304;DHT22;2674;49.722;10.892;2023-12-20T14:03:52;5.20;99.90
5304;DHT22;2674;49.722;10.892;2023-12-20T14:06:18;5.30;99.90
5304;DHT22;2674;49.722;10.892;2023-12-20T14:08:44;5.20;99.90
5304;DHT22;2674;49.722;10.892;2023-12-20T14:11:09;5.30;99.90
5304;DHT22;2674;49.722;10.892;2023-12-20T14:13:42;5.20;99.90
5304;DHT22;2674;49.722;10.892;2023-12-20T14:16:08;5.20;99.90
5304;DHT22;2674;49.722;10.892;2023-12-20T14:18:36;5.20;99.90
5304;DHT22;2674;49.722;10.892;2023-12-20T14:21:02;5.20;99.90
5304;DHT22;2674;49.722;10.892;2023-12-20T14:23:28;5.20;99.90
5304;DHT22;2674;49.722;10.892;2023-12-20T14:25:53;5.30;99.90
5304;DHT22;2674;49.722;10.892;2023-12-20T14:28:21;5.20;99.90
5304;DHT22;2674;49.722;10.892;2023-12-20T14:30:47;5.20;99.90
5304;DHT22;2674;49.722;10.892;2023-12-20T14:33:14;5.20;99.90
5304;DHT22;2674;49.722;10.892;2023-12-20T14:35:40;5.20;99.90
5304;DHT22;2674;49.722;10.892;2023-12-20T14:38:08;5.20;99.90
5304;DHT22;2674;49.722;10.892;2023-12-20T14:40:33;5.20;99.90
5304;DHT22;2674;49.722;10.892;2023-12-20T14:42:59;5.20;99.90
5304;DHT22;2674;49.722;10.892;2023-12-20T14:45:25;5.20;99.90
5304;DHT22;2674;49.722;10.892;2023-12-20T14:47:51;5.10;99.90
5304;DHT22;2674;49.722;10.892;2023-12-20T14:50:17;5.10;99.90
5304;DHT22;2674;49.722;10.892;2023-12-20T14:52:44;5.10;99.90
5304;DHT22;2674;49.722;10.892;2023-12-20T14:55:10;5.10;99.90
5304;DHT22;2674;49.722;10.892;2023-12-20T14:57:36;5.10;99.90
5304;DHT22;2674;49.722;10.892;2023-12-20T15:00:02;5.00;99.90
5304;DHT22;2674;49.722;10.892;2023-12-20T15:02:29;5.00;99.90
5304;DHT22;2674;49.722;10.892;2023-12-20T15:04:56;5.00;99.90
5304;DHT22;2674;49.722;10.892;2023-12-20T15:07:22;5.00;99.90
5304;DHT22;2674;49.722;10.892;2023-12-20T15:09:48;5.00;99.90
5304;DHT22;2674;49.722;10.892;2023-12-20T15:12:14;4.90;99.90
5304;DHT22;2674;49.722;10.892;2023-12-20T15:14:40;4.90;99.90
5304;DHT22;2674;49.722;10.892;2023-12-20T15:17:07;4.90;99.90
5304;DHT22;2674;49.722;10.892;2023-12-20T15:19:32;4.90;99.90
5304;DHT22;2674;49.722;10.892;2023-12-20T15:21:58;4.70;99.90
5304;DHT22;2674;49.722;10.892;2023-12-20T15:24:29;4.90;99.90
5304;DHT22;2674;49.722;10.892;2023-12-20T15:27:06;4.90;99.90
5304;DHT22;2674;49.722;10.892;2023-12-20T15:29:32;4.90;99.90
5304;DHT22;2674;49.722;10.892;2023-12-20T15:31:58;4.80;99.90
5304;DHT22;2674;49.722;10.892;2023-12-20T15:34:24;4.80;99.90
5304;DHT22;2674;49.722;10.892;2023-12-20T15:36:50;4.80;99.90
5304;DHT22;2674;49.722;10.892;2023-12-20T15:39:16;4.80;99.90
5304;DHT22;2674;49.722;10.892;2023-12-20T15:41:42;4.80;99.90
5304;DHT22;2674;49.722;10.892;2023-12-20T15:44:08;4.80;99.90
5304;DHT22;2674;49.722;10.892;2023-12-20T15:46:34;4.80;99.90
5304;DHT22;2674;49.722;10.892;2023-12-20T15:49:00;4.80;99.90
5304;DHT22;2674;49.722;10.892;2023-12-20T15:51:26;4.80;99.90
5304;DHT22;2674;49.722;10.892;2023-12-20T15:53:52;4.80;99.90
5304;DHT22;2674;49.722;10.892;2023-12-20T15:56:18;4.80;99.90
5304;DHT22;2674;49.722;10.892;2023-12-20T15:58:45;4.80;99.90
5304;DHT22;2674;49.722;10.892;2023-12-20T16:01:10;4.80;99.90
5304;DHT22;2674;49.722;10.892;2023-12-20T16:03:36;4.70;99.90